createdAt,value
2022-12-18T00:01:07.338Z,12.80
2022-12-18T00:03:37.030Z,13.75
2022-12-18T00:06:04.196Z,13.13
2022-12-18T00:08:30.801Z,13.48
2022-12-18T00:11:07.021Z,13.02
2022-12-18T00:13:34.283Z,13.93
2022-12-18T00:16:06.052Z,13.55
2022-12-18T00:18:33.768Z,13.52
2022-12-18T00:21:02.509Z,15.07
2022-12-18T00:23:30.339Z,13.77
2022-12-18T00:26:01.255Z,14.07
2022-12-18T00:28:27.955Z,14.88
2022-12-18T00:31:12.616Z,13.57
2022-12-18T00:33:39.892Z,14.48
2022-12-18T00:36:10.059Z,13.75
2022-12-18T00:38:37.272Z,14.57
2022-12-18T00:41:04.541Z,15.32
2022-12-18T00:43:31.033Z,14.45
2022-12-18T00:45:57.522Z,14.50
2022-12-18T00:48:24.091Z,13.60
2022-12-18T00:50:51.552Z,14.80
2022-12-18T00:53:19.250Z,15.15
2022-12-18T00:55:46.725Z,13.75
2022-12-18T00:58:14.640Z,13.75
2022-12-18T01:00:41.888Z,15.35
2022-12-18T01:03:08.968Z,14.68
2022-12-18T01:05:35.606Z,13.88
2022-12-18T01:08:02.174Z,14.65
2022-12-18T01:10:28.685Z,14.75
2022-12-18T01:12:55.123Z,15.05
2022-12-18T01:15:21.695Z,14.50
2022-12-18T01:17:48.194Z,14.90
2022-12-18T01:20:15.012Z,13.93
2022-12-18T01:22:41.766Z,14.13
2022-12-18T01:25:09.125Z,15.48
2022-12-18T01:27:35.771Z,15.15
2022-12-18T01:30:02.464Z,14.40
2022-12-18T01:32:31.985Z,15.63
2022-12-18T01:34:58.826Z,13.48
2022-12-18T01:37:25.571Z,15.68
2022-12-18T01:39:55.311Z,14.55
2022-12-18T01:42:22.613Z,15.18
2022-12-18T01:45:22.474Z,13.52
2022-12-18T01:47:52.097Z,14.20
2022-12-18T01:50:23.136Z,14.18
2022-12-18T01:53:03.233Z,14.13
2022-12-18T01:55:34.084Z,13.93
2022-12-18T01:58:01.575Z,14.65
2022-12-18T02:00:29.067Z,14.18
2022-12-18T02:02:55.882Z,14.30
2022-12-18T02:05:41.907Z,14.70
2022-12-18T02:08:17.154Z,14.43
2022-12-18T02:11:15.105Z,14.60
2022-12-18T02:13:57.156Z,12.73
2022-12-18T02:17:02.483Z,13.27
2022-12-18T02:19:48.194Z,14.45
2022-12-18T02:22:42.575Z,13.02
2022-12-18T02:25:33.581Z,12.90
2022-12-18T02:28:02.735Z,12.60
2022-12-18T02:30:34.070Z,12.20
2022-12-18T02:33:04.984Z,13.98
2022-12-18T02:35:34.681Z,12.73
2022-12-18T02:38:04.148Z,12.90
2022-12-18T02:40:31.398Z,13.05
2022-12-18T02:43:13.405Z,12.85
2022-12-18T02:45:53.308Z,12.60
2022-12-18T02:48:24.394Z,13.38
2022-12-18T02:51:21.800Z,12.75
2022-12-18T02:54:17.087Z,13.00
2022-12-18T02:56:51.541Z,13.38
2022-12-18T02:59:32.951Z,13.02
2022-12-18T03:04:44.687Z,11.73
2022-12-18T03:07:19.497Z,12.88
2022-12-18T03:09:49.482Z,12.90
2022-12-18T03:12:24.812Z,12.48
2022-12-18T03:15:18.331Z,11.60
2022-12-18T03:17:53.764Z,12.48
2022-12-18T03:20:23.400Z,11.73
2022-12-18T03:22:57.141Z,12.15
2022-12-18T03:25:26.606Z,12.02
2022-12-18T03:27:58.874Z,11.13
2022-12-18T03:30:27.495Z,10.63
2022-12-18T03:33:08.212Z,11.68
2022-12-18T03:35:40.157Z,12.60
2022-12-18T03:38:08.139Z,11.50
2022-12-18T03:41:07.461Z,10.85
2022-12-18T03:43:51.954Z,10.93
2022-12-18T03:46:31.035Z,11.32
2022-12-18T03:49:09.678Z,11.70
2022-12-18T03:51:46.174Z,10.80
2022-12-18T03:54:13.915Z,10.50
2022-12-18T03:56:45.213Z,12.63
2022-12-18T03:59:16.083Z,11.18
2022-12-18T04:01:52.587Z,11.10
2022-12-18T04:04:20.755Z,10.80
2022-12-18T04:06:50.645Z,12.00
2022-12-18T04:09:17.318Z,11.20
2022-12-18T04:11:46.981Z,10.73
2022-12-18T04:14:17.673Z,11.52
2022-12-18T04:16:44.984Z,10.73
2022-12-18T04:19:11.535Z,10.63
2022-12-18T04:21:38.151Z,12.13
2022-12-18T04:24:05.059Z,9.93
2022-12-18T04:26:31.775Z,11.80
2022-12-18T04:28:58.261Z,11.50
2022-12-18T04:31:24.947Z,10.52
2022-12-18T04:33:54.602Z,10.60
2022-12-18T04:36:21.139Z,9.25
2022-12-18T04:38:47.745Z,10.52
2022-12-18T04:41:14.304Z,9.52
2022-12-18T04:43:41.273Z,9.57
2022-12-18T04:46:09.108Z,9.80
2022-12-18T04:48:36.532Z,9.85
2022-12-18T04:51:03.591Z,9.70
2022-12-18T04:53:30.159Z,9.55
2022-12-18T04:56:08.077Z,9.73
2022-12-18T04:58:34.653Z,8.73
2022-12-18T05:01:01.450Z,9.80
2022-12-18T05:03:28.309Z,10.10
2022-12-18T05:05:54.782Z,10.77
2022-12-18T05:08:21.557Z,9.65
2022-12-18T05:10:48.013Z,9.65
2022-12-18T05:13:14.669Z,9.75
2022-12-18T05:15:42.753Z,9.63
2022-12-18T05:18:09.601Z,10.50
2022-12-18T05:20:36.100Z,9.30
2022-12-18T05:23:02.692Z,9.27
2022-12-18T05:25:29.327Z,9.32
2022-12-18T05:27:56.113Z,9.73
2022-12-18T05:30:23.468Z,8.73
2022-12-18T05:32:49.923Z,8.65
2022-12-18T05:35:16.593Z,9.25
2022-12-18T05:37:43.652Z,9.57
2022-12-18T05:40:11.159Z,8.23
2022-12-18T05:42:37.938Z,8.85
2022-12-18T05:45:05.828Z,8.68
2022-12-18T05:47:32.551Z,8.27
2022-12-18T05:49:59.086Z,8.30
2022-12-18T05:52:25.635Z,8.77
2022-12-18T05:54:52.212Z,8.68
2022-12-18T05:57:18.692Z,9.57
2022-12-18T05:59:45.296Z,8.65
2022-12-18T06:02:12.010Z,8.43
2022-12-18T06:04:38.627Z,7.82
2022-12-18T06:07:05.172Z,8.75
2022-12-18T06:09:31.824Z,9.32
2022-12-18T06:11:58.505Z,9.60
2022-12-18T06:14:24.999Z,8.23
2022-12-18T06:16:53.326Z,8.23
2022-12-18T06:19:19.877Z,8.07
2022-12-18T06:21:46.447Z,9.18
2022-12-18T06:24:13.066Z,9.05
2022-12-18T06:26:40.201Z,8.20
2022-12-18T06:29:07.020Z,9.00
2022-12-18T06:31:33.759Z,8.27
2022-12-18T06:34:02.685Z,8.88
2022-12-18T06:36:29.669Z,7.97
2022-12-18T06:38:57.952Z,9.55
2022-12-18T06:41:25.004Z,8.77
2022-12-18T06:43:53.552Z,8.27
2022-12-18T06:46:22.223Z,8.98
2022-12-18T06:48:50.862Z,8.40
2022-12-18T06:51:22.270Z,8.75
2022-12-18T06:53:48.890Z,8.38
2022-12-18T06:56:15.493Z,8.68
2022-12-18T06:58:42.106Z,9.23
2022-12-18T07:01:11.396Z,8.68
2022-12-18T07:03:40.008Z,8.77
2022-12-18T07:06:07.485Z,9.05
2022-12-18T07:08:34.816Z,8.98
2022-12-18T07:11:04.676Z,8.25
2022-12-18T07:13:31.374Z,8.25
2022-12-18T07:16:18.448Z,9.00
2022-12-18T07:18:49.321Z,7.68
2022-12-18T07:21:19.303Z,8.10
2022-12-18T07:23:48.825Z,8.10
2022-12-18T07:26:17.666Z,7.20
2022-12-18T07:28:44.796Z,7.25
2022-12-18T07:31:14.619Z,8.77
2022-12-18T07:33:42.018Z,7.88
2022-12-18T07:36:10.753Z,8.23
2022-12-18T07:38:37.656Z,8.20
2022-12-18T07:41:12.379Z,7.25
2022-12-18T07:43:40.451Z,7.93
2022-12-18T07:46:09.492Z,7.45
2022-12-18T07:48:36.154Z,7.47
2022-12-18T07:51:07.585Z,6.97
2022-12-18T07:53:35.556Z,8.00
2022-12-18T07:56:26.508Z,7.03
2022-12-18T07:58:52.664Z,7.32
2022-12-18T08:01:19.184Z,7.70
2022-12-18T08:03:47.765Z,6.75
2022-12-18T08:06:14.722Z,7.22
2022-12-18T08:08:43.222Z,7.15
2022-12-18T08:11:10.047Z,7.22
2022-12-18T08:13:36.687Z,7.85
2022-12-18T08:16:07.025Z,7.65
2022-12-18T08:18:35.270Z,7.28
2022-12-18T08:21:20.451Z,7.80
2022-12-18T08:23:48.785Z,7.40
2022-12-18T08:26:16.351Z,7.97
2022-12-18T08:28:43.197Z,7.70
2022-12-18T08:31:10.092Z,8.02
2022-12-18T08:33:39.041Z,8.40
2022-12-18T08:36:06.452Z,7.65
2022-12-18T08:38:33.699Z,8.57
2022-12-18T08:41:04.733Z,7.40
2022-12-18T08:43:49.861Z,8.75
2022-12-18T08:46:16.480Z,8.48
2022-12-18T08:48:43.061Z,8.60
2022-12-18T08:51:10.684Z,9.13
2022-12-18T08:53:38.451Z,9.30
2022-12-18T08:56:05.850Z,9.35
2022-12-18T08:58:32.497Z,8.77
2022-12-18T09:01:06.530Z,9.50
2022-12-18T09:03:33.602Z,8.55
2022-12-18T09:06:00.614Z,7.85
2022-12-18T09:08:27.785Z,9.43
2022-12-18T09:10:54.351Z,8.27
2022-12-18T09:13:21.106Z,8.23
2022-12-18T09:15:53.080Z,8.70
2022-12-18T09:18:22.421Z,8.75
2022-12-18T09:20:49.045Z,8.85
2022-12-18T09:23:15.851Z,9.27
2022-12-18T09:25:42.583Z,8.73
2022-12-18T09:28:15.568Z,9.10
2022-12-18T09:30:47.476Z,8.82
2022-12-18T09:33:14.705Z,8.57
2022-12-18T09:35:42.835Z,8.70
2022-12-18T09:38:13.661Z,9.10
2022-12-18T09:40:48.397Z,8.65
2022-12-18T09:43:39.492Z,9.55
2022-12-18T09:46:11.387Z,8.60
2022-12-18T09:48:44.972Z,7.72
2022-12-18T09:51:19.421Z,8.75
2022-12-18T09:53:56.692Z,7.35
2022-12-18T09:56:24.100Z,7.00
2022-12-18T09:58:58.913Z,7.25
2022-12-18T10:01:30.322Z,7.80
2022-12-18T10:04:02.247Z,6.50
2022-12-18T10:06:33.307Z,6.38
2022-12-18T10:09:08.929Z,8.18
2022-12-18T10:11:55.054Z,7.35
2022-12-18T10:14:34.007Z,7.65
2022-12-18T10:17:25.282Z,6.93
2022-12-18T10:19:57.359Z,7.65
2022-12-18T10:22:39.079Z,7.55
2022-12-18T10:25:20.925Z,7.28
2022-12-18T10:27:48.211Z,7.07
2022-12-18T10:30:22.204Z,7.60
2022-12-18T10:32:48.796Z,7.68
2022-12-18T10:35:25.019Z,7.00
2022-12-18T10:38:29.210Z,7.45
2022-12-18T10:40:58.524Z,7.15
2022-12-18T10:43:36.694Z,7.72
2022-12-18T10:46:09.151Z,6.50
2022-12-18T10:48:38.150Z,7.60
2022-12-18T10:51:12.145Z,7.35
2022-12-18T10:53:42.442Z,7.10
2022-12-18T10:56:09.903Z,7.50
2022-12-18T10:58:39.528Z,6.90
2022-12-18T11:01:09.491Z,6.80
2022-12-18T11:03:39.293Z,7.07
2022-12-18T11:06:07.885Z,13.52
2022-12-18T11:08:34.658Z,7.57
2022-12-18T11:11:01.697Z,7.32
2022-12-18T11:13:31.617Z,6.90
2022-12-18T11:15:59.044Z,6.38
2022-12-18T11:18:35.421Z,7.03
2022-12-18T11:21:08.856Z,6.93
2022-12-18T11:23:37.210Z,7.47
2022-12-18T11:26:07.048Z,6.38
2022-12-18T11:28:48.218Z,7.45
2022-12-18T11:31:28.763Z,7.30
2022-12-18T11:34:30.650Z,6.75
2022-12-18T11:37:00.121Z,6.60
2022-12-18T11:39:57.654Z,6.68
2022-12-18T11:42:33.799Z,6.90
2022-12-18T11:45:02.513Z,6.68
2022-12-18T11:47:47.817Z,6.82
2022-12-18T11:50:23.046Z,6.53
2022-12-18T11:52:55.946Z,6.55
2022-12-18T11:55:29.934Z,6.53
2022-12-18T11:58:15.589Z,6.38
2022-12-18T12:00:55.473Z,6.88
2022-12-18T12:03:48.542Z,6.95
2022-12-18T12:06:56.480Z,7.05
2022-12-18T12:10:10.637Z,6.43
2022-12-18T12:12:58.467Z,6.53
2022-12-18T12:16:02.493Z,6.63
2022-12-18T12:19:19.689Z,6.45
2022-12-18T12:22:19.942Z,7.45
2022-12-18T12:24:58.525Z,7.20
2022-12-18T12:27:33.757Z,7.82
2022-12-18T12:30:38.150Z,7.85
2022-12-18T12:33:19.735Z,7.50
2022-12-18T12:36:04.977Z,7.50
2022-12-18T12:38:46.858Z,7.20
2022-12-18T12:41:40.601Z,7.70
2022-12-18T12:44:15.311Z,7.18
2022-12-18T12:46:44.662Z,7.30
2022-12-18T12:49:16.493Z,7.57
2022-12-18T12:51:48.682Z,8.32
2022-12-18T12:54:21.139Z,7.38
2022-12-18T12:57:03.271Z,7.50
2022-12-18T12:59:30.301Z,7.38
2022-12-18T13:02:15.144Z,7.45
2022-12-18T13:05:23.815Z,7.05
2022-12-18T13:08:12.030Z,6.88
2022-12-18T13:10:43.292Z,6.95
2022-12-18T13:13:21.188Z,6.70
2022-12-18T13:16:06.066Z,6.72
2022-12-18T13:18:34.198Z,7.20
2022-12-18T13:21:03.324Z,6.43
2022-12-18T13:23:38.313Z,7.60
2022-12-18T13:26:09.011Z,7.40
2022-12-18T13:28:47.873Z,7.10
2022-12-18T13:31:14.457Z,7.47
2022-12-18T13:34:16.939Z,7.93
2022-12-18T13:36:34.848Z,7.20
2022-12-18T13:39:26.517Z,7.63
2022-12-18T13:42:56.339Z,7.28
2022-12-18T13:45:43.363Z,8.40
2022-12-18T13:48:23.602Z,7.40
2022-12-18T13:50:57.573Z,8.45
2022-12-18T13:53:29.301Z,7.50
2022-12-18T13:55:56.128Z,7.63
2022-12-18T13:58:23.369Z,7.88
2022-12-18T14:00:49.941Z,7.53
2022-12-18T14:03:22.457Z,8.60
2022-12-18T14:05:56.657Z,8.77
2022-12-18T14:08:29.262Z,8.00
2022-12-18T14:10:56.309Z,8.30
2022-12-18T14:13:31.266Z,7.93
2022-12-18T14:18:28.324Z,7.70
2022-12-18T14:21:03.423Z,7.65
2022-12-18T14:23:42.161Z,7.68
2022-12-18T14:26:28.196Z,7.90
2022-12-18T14:28:56.447Z,7.78
2022-12-18T14:31:25.467Z,7.80
2022-12-18T14:33:53.377Z,8.05
2022-12-18T14:36:25.266Z,7.43
2022-12-18T14:38:57.481Z,7.45
2022-12-18T14:41:25.489Z,7.45
2022-12-18T14:43:54.849Z,7.80
2022-12-18T14:46:33.946Z,7.85
2022-12-18T14:49:06.857Z,8.18
2022-12-18T14:51:35.252Z,8.00
2022-12-18T14:54:15.710Z,7.88
2022-12-18T14:56:52.079Z,7.93
2022-12-18T14:59:24.823Z,7.72
2022-12-18T15:02:05.401Z,8.25
2022-12-18T15:07:19.690Z,7.32
2022-12-18T15:10:11.424Z,7.13
2022-12-18T15:12:42.670Z,7.75
2022-12-18T15:15:34.482Z,8.95
2022-12-18T15:18:11.467Z,8.05
2022-12-18T15:20:44.100Z,7.78
2022-12-18T15:23:27.140Z,7.18
2022-12-18T15:26:02.374Z,7.57
2022-12-18T15:28:48.893Z,7.70
2022-12-18T15:31:17.036Z,7.07
2022-12-18T15:33:53.959Z,7.57
2022-12-18T15:36:26.533Z,7.03
2022-12-18T15:38:57.878Z,8.80
2022-12-18T15:41:35.249Z,7.97
2022-12-18T15:44:03.943Z,7.30
2022-12-18T15:46:32.005Z,8.25
2022-12-18T15:49:02.314Z,10.55
2022-12-18T15:51:34.553Z,8.43
2022-12-18T15:54:07.215Z,11.40
2022-12-18T15:56:52.279Z,8.77
2022-12-18T15:59:23.739Z,15.85
2022-12-18T16:01:53.944Z,9.27
2022-12-18T16:04:22.603Z,9.30
2022-12-18T16:09:37.828Z,12.93
2022-12-18T16:12:04.836Z,9.55
2022-12-18T16:14:31.953Z,9.48
2022-12-18T16:17:03.550Z,9.02
2022-12-18T16:19:30.728Z,8.82
2022-12-18T16:21:58.797Z,9.05
2022-12-18T16:24:28.608Z,9.15
2022-12-18T16:26:57.263Z,9.07
2022-12-18T16:29:27.782Z,9.00
2022-12-18T16:31:55.419Z,8.93
2022-12-18T16:34:23.450Z,9.00
2022-12-18T16:36:54.396Z,8.35
2022-12-18T16:39:22.365Z,9.05
2022-12-18T16:41:50.329Z,9.20
2022-12-18T16:44:17.437Z,9.68
2022-12-18T16:46:46.395Z,9.93
2022-12-18T16:49:18.560Z,9.88
2022-12-18T16:51:46.809Z,9.77
2022-12-18T16:54:19.023Z,9.35
2022-12-18T16:56:48.035Z,9.75
2022-12-18T16:59:14.753Z,9.93
2022-12-18T17:01:42.571Z,10.07
2022-12-18T17:04:09.648Z,10.40
2022-12-18T17:06:41.646Z,9.80
2022-12-18T17:09:12.783Z,9.48
2022-12-18T17:11:39.501Z,10.52
2022-12-18T17:14:25.318Z,11.07
2022-12-18T17:17:20.377Z,9.63
2022-12-18T17:19:43.744Z,12.30
2022-12-18T17:22:10.412Z,9.68
2022-12-18T17:24:37.485Z,10.60
2022-12-18T17:27:04.752Z,11.00
2022-12-18T17:29:31.599Z,12.10
2022-12-18T17:32:00.412Z,11.55
2022-12-18T17:34:27.578Z,11.00
2022-12-18T17:36:54.272Z,10.18
2022-12-18T17:39:21.459Z,12.88
2022-12-18T17:41:49.374Z,11.23
2022-12-18T17:44:16.876Z,11.00
2022-12-18T17:46:46.709Z,11.80
2022-12-18T17:49:14.215Z,10.30
2022-12-18T17:51:43.178Z,19.85
2022-12-18T17:54:10.696Z,13.82
2022-12-18T17:56:37.925Z,11.75
2022-12-18T17:59:04.627Z,13.65
2022-12-18T18:01:31.220Z,12.40
2022-12-18T18:04:00.213Z,9.82
2022-12-18T18:06:27.238Z,11.13
2022-12-18T18:08:54.151Z,12.25
2022-12-18T18:11:41.310Z,9.98
2022-12-18T18:14:15.467Z,16.08
2022-12-18T18:16:44.634Z,14.48
2022-12-18T18:19:14.766Z,14.02
2022-12-18T18:21:44.200Z,12.23
2022-12-18T18:24:13.546Z,13.05
2022-12-18T18:29:08.825Z,10.65
2022-12-18T18:31:40.803Z,10.82
2022-12-18T18:34:08.207Z,16.88
2022-12-18T18:36:34.957Z,11.23
2022-12-18T18:39:02.156Z,10.88
2022-12-18T18:41:30.621Z,11.98
2022-12-18T18:43:58.694Z,10.38
2022-12-18T18:46:25.898Z,12.40
2022-12-18T18:48:52.738Z,11.23
2022-12-18T18:51:21.117Z,11.18
2022-12-18T18:53:50.487Z,11.70
2022-12-18T18:56:45.465Z,11.15
2022-12-18T18:59:06.503Z,10.38
2022-12-18T19:01:33.162Z,10.75
2022-12-18T19:04:01.138Z,10.73
2022-12-18T19:06:28.493Z,9.68
2022-12-18T19:08:57.210Z,10.48
2022-12-18T19:11:44.148Z,10.27
2022-12-18T19:14:12.977Z,13.18
2022-12-18T19:19:07.046Z,9.82
2022-12-18T19:21:34.877Z,10.90
2022-12-18T19:24:05.055Z,10.73
2022-12-18T19:26:31.659Z,11.43
2022-12-18T19:29:06.053Z,10.77
2022-12-18T19:31:35.993Z,11.98
2022-12-18T19:34:03.790Z,10.00
2022-12-18T19:36:31.270Z,11.23
2022-12-18T19:39:00.219Z,10.40
2022-12-18T19:43:57.145Z,10.10
2022-12-18T19:46:23.876Z,10.40
2022-12-18T19:48:51.585Z,10.95
2022-12-18T19:51:22.842Z,10.18
2022-12-18T19:53:54.949Z,10.57
2022-12-18T19:56:26.909Z,10.10
2022-12-18T19:58:55.061Z,9.88
2022-12-18T20:01:24.150Z,9.25
2022-12-18T20:03:53.748Z,9.68
2022-12-18T20:06:34.276Z,10.68
2022-12-18T20:09:04.418Z,11.05
2022-12-18T20:11:32.351Z,11.57
2022-12-18T20:13:58.920Z,10.52
2022-12-18T20:16:25.611Z,11.20
2022-12-18T20:18:52.462Z,11.07
2022-12-18T20:21:19.673Z,14.88
2022-12-18T20:23:46.735Z,11.82
2022-12-18T20:26:13.283Z,14.20
2022-12-18T20:28:40.724Z,14.68
2022-12-18T20:31:08.485Z,10.75
2022-12-18T20:33:37.486Z,11.35
2022-12-18T20:36:10.512Z,11.45
2022-12-18T20:38:39.037Z,11.20
2022-12-18T20:43:39.158Z,10.60
2022-12-18T20:46:09.291Z,11.25
2022-12-18T20:48:36.297Z,11.82
2022-12-18T20:51:06.059Z,11.13
2022-12-18T20:53:33.481Z,11.90
2022-12-18T20:56:01.569Z,17.25
2022-12-18T20:58:28.267Z,13.88
2022-12-18T21:01:08.652Z,13.63
2022-12-18T21:03:35.554Z,15.27
2022-12-18T21:06:02.232Z,14.40
2022-12-18T21:08:28.704Z,12.88
2022-12-18T21:10:55.916Z,17.60
2022-12-18T21:13:22.935Z,18.85
2022-12-18T21:15:49.558Z,22.10
2022-12-18T21:18:16.129Z,13.80
2022-12-18T21:20:42.633Z,12.57
2022-12-18T21:23:16.227Z,12.40
2022-12-18T21:25:43.472Z,11.48
2022-12-18T21:28:09.908Z,11.13
2022-12-18T21:30:36.570Z,13.75
2022-12-18T21:33:03.259Z,12.40
2022-12-18T21:35:29.797Z,12.23
2022-12-18T21:37:58.741Z,12.30
2022-12-18T21:40:25.311Z,11.63
2022-12-18T21:43:10.396Z,11.80
2022-12-18T21:45:40.511Z,12.15
2022-12-18T21:48:07.055Z,11.15
2022-12-18T21:50:33.525Z,11.75
2022-12-18T21:53:00.102Z,11.65
2022-12-18T21:55:26.649Z,11.25
2022-12-18T21:57:54.692Z,12.63
2022-12-18T22:00:21.579Z,12.45
2022-12-18T22:03:17.848Z,11.70
2022-12-18T22:08:01.804Z,11.60
2022-12-18T22:10:28.650Z,11.95
2022-12-18T22:12:55.235Z,13.75
2022-12-18T22:15:22.155Z,11.70
2022-12-18T22:17:50.995Z,11.55
2022-12-18T22:20:19.965Z,13.27
2022-12-18T22:22:48.202Z,12.32
2022-12-18T22:25:14.866Z,11.70
2022-12-18T22:27:41.323Z,12.90
2022-12-18T22:30:08.449Z,11.88
2022-12-18T22:32:36.139Z,12.88
2022-12-18T22:35:09.499Z,12.15
2022-12-18T22:37:40.794Z,11.85
2022-12-18T22:40:07.927Z,11.50
2022-12-18T22:42:35.295Z,11.02
2022-12-18T22:45:01.832Z,12.88
2022-12-18T22:47:30.513Z,12.75
2022-12-18T22:49:57.869Z,12.88
2022-12-18T22:52:25.082Z,12.45
2022-12-18T22:54:53.333Z,12.52
2022-12-18T22:57:21.693Z,10.93
2022-12-18T22:59:49.132Z,12.13
2022-12-18T23:02:15.839Z,12.23
2022-12-18T23:04:42.439Z,12.40
2022-12-18T23:07:09.048Z,12.80
2022-12-18T23:12:04.693Z,11.57
2022-12-18T23:14:31.807Z,11.82
2022-12-18T23:16:58.327Z,11.13
2022-12-18T23:19:25.406Z,11.75
2022-12-18T23:21:51.996Z,12.50
2022-12-18T23:24:21.028Z,12.82
2022-12-18T23:26:47.494Z,12.00
2022-12-18T23:29:14.092Z,12.50
2022-12-18T23:31:40.732Z,13.25
2022-12-18T23:34:07.850Z,12.68
2022-12-18T23:36:45.334Z,12.88
2022-12-18T23:39:15.449Z,13.00
2022-12-18T23:41:57.742Z,12.57
2022-12-18T23:44:24.344Z,13.00
2022-12-18T23:46:50.946Z,12.88
2022-12-18T23:49:17.497Z,11.82
2022-12-18T23:51:43.941Z,13.88
2022-12-18T23:54:10.859Z,12.57
2022-12-18T23:56:37.445Z,12.52
2022-12-18T23:59:03.964Z,12.70
